sensor_id;sensor_type;location;lat;lon;timestamp;pressure;altitude;pressure_sealevel;temperature;humidity
55079;BME280;55187;49.496;6.010;2022-07-22T00:00:05;97921.94;;;13.08;100.00
55079;BME280;55187;49.496;6.010;2022-07-22T00:02:31;97928.69;;;13.10;100.00
55079;BME280;55187;49.496;6.010;2022-07-22T00:04:58;97927.44;;;13.06;100.00
55079;BME280;55187;49.496;6.010;2022-07-22T00:07:24;97928.22;;;13.00;100.00
55079;BME280;55187;49.496;6.010;2022-07-22T00:09:50;97932.06;;;12.97;100.00
55079;BME280;55187;49.496;6.010;2022-07-22T00:12:16;97927.78;;;12.96;100.00
55079;BME280;55187;49.496;6.010;2022-07-22T00:14:43;97928.75;;;12.89;100.00
55079;BME280;55187;49.496;6.010;2022-07-22T00:17:09;97924.44;;;12.88;100.00
55079;BME280;55187;49.496;6.010;2022-07-22T00:19:35;97927.72;;;12.90;100.00
55079;BME280;55187;49.496;6.010;2022-07-22T00:22:01;97922.00;;;12.86;100.00
55079;BME280;55187;49.496;6.010;2022-07-22T00:24:27;97921.31;;;12.77;100.00
55079;BME280;55187;49.496;6.010;2022-07-22T00:26:53;97924.09;;;12.69;100.00
55079;BME280;55187;49.496;6.010;2022-07-22T00:29:19;97928.78;;;12.67;100.00
55079;BME280;55187;49.496;6.010;2022-07-22T00:31:46;97920.34;;;12.57;100.00
55079;BME280;55187;49.496;6.010;2022-07-22T00:34:12;97915.34;;;12.47;100.00
55079;BME280;55187;49.496;6.010;2022-07-22T00:36:38;97921.53;;;12.54;100.00
55079;BME280;55187;49.496;6.010;2022-07-22T00:39:05;97916.81;;;12.50;100.00
55079;BME280;55187;49.496;6.010;2022-07-22T00:41:31;97921.66;;;12.46;100.00
55079;BME280;55187;49.496;6.010;2022-07-22T00:43:59;97922.81;;;12.37;100.00
55079;BME280;55187;49.496;6.010;2022-07-22T00:46:26;97904.22;;;12.37;100.00
55079;BME280;55187;49.496;6.010;2022-07-22T00:48:56;97907.66;;;12.31;100.00
55079;BME280;55187;49.496;6.010;2022-07-22T00:51:23;97904.56;;;12.27;100.00
55079;BME280;55187;49.496;6.010;2022-07-22T00:53:50;97907.09;;;12.35;100.00
55079;BME280;55187;49.496;6.010;2022-07-22T00:56:19;97905.38;;;12.28;100.00
55079;BME280;55187;49.496;6.010;2022-07-22T00:58:46;97906.38;;;12.27;100.00
55079;BME280;55187;49.496;6.010;2022-07-22T01:01:12;97908.84;;;12.28;100.00
55079;BME280;55187;49.496;6.010;2022-07-22T01:03:39;97906.16;;;12.22;100.00
55079;BME280;55187;49.496;6.010;2022-07-22T01:06:05;97904.38;;;12.29;100.00
55079;BME280;55187;49.496;6.010;2022-07-22T01:08:32;97906.56;;;12.25;100.00
55079;BME280;55187;49.496;6.010;2022-07-22T01:11:08;97898.75;;;12.17;100.00
55079;BME280;55187;49.496;6.010;2022-07-22T01:13:35;97903.41;;;12.15;100.00
55079;BME280;55187;49.496;6.010;2022-07-22T01:16:02;97903.50;;;12.22;100.00
55079;BME280;55187;49.496;6.010;2022-07-22T01:18:28;97897.53;;;12.20;100.00
55079;BME280;55187;49.496;6.010;2022-07-22T01:20:54;97905.22;;;12.14;100.00
55079;BME280;55187;49.496;6.010;2022-07-22T01:23:20;97896.97;;;12.24;100.00
55079;BME280;55187;49.496;6.010;2022-07-22T01:25:47;97890.59;;;12.18;100.00
55079;BME280;55187;49.496;6.010;2022-07-22T01:28:13;97888.06;;;12.10;100.00
55079;BME280;55187;49.496;6.010;2022-07-22T01:30:39;97886.06;;;12.12;100.00
55079;BME280;55187;49.496;6.010;2022-07-22T01:33:05;97885.22;;;12.12;100.00
55079;BME280;55187;49.496;6.010;2022-07-22T01:35:31;97898.03;;;12.08;100.00
55079;BME280;55187;49.496;6.010;2022-07-22T01:37:57;97885.22;;;12.12;100.00
55079;BME280;55187;49.496;6.010;2022-07-22T01:40:24;97894.19;;;12.11;100.00
55079;BME280;55187;49.496;6.010;2022-07-22T01:42:50;97891.66;;;12.03;100.00
55079;BME280;55187;49.496;6.010;2022-07-22T01:45:16;97895.97;;;12.04;100.00
55079;BME280;55187;49.496;6.010;2022-07-22T01:47:43;97910.59;;;12.00;100.00
55079;BME280;55187;49.496;6.010;2022-07-22T01:50:09;97895.44;;;11.93;100.00
55079;BME280;55187;49.496;6.010;2022-07-22T01:52:36;97900.09;;;11.91;100.00
55079;BME280;55187;49.496;6.010;2022-07-22T01:55:03;97897.81;;;11.88;100.00
55079;BME280;55187;49.496;6.010;2022-07-22T01:57:30;97884.47;;;11.82;100.00
55079;BME280;55187;49.496;6.010;2022-07-22T01:59:56;97891.44;;;11.83;100.00
55079;BME280;55187;49.496;6.010;2022-07-22T02:02:28;97886.84;;;11.76;100.00
55079;BME280;55187;49.496;6.010;2022-07-22T02:04:54;97893.38;;;11.74;100.00
55079;BME280;55187;49.496;6.010;2022-07-22T02:07:20;97882.28;;;11.70;100.00
55079;BME280;55187;49.496;6.010;2022-07-22T02:09:47;97892.09;;;11.70;100.00
55079;BME280;55187;49.496;6.010;2022-07-22T02:12:13;97890.06;;;11.72;100.00
55079;BME280;55187;49.496;6.010;2022-07-22T02:14:44;97880.84;;;11.68;100.00
55079;BME280;55187;49.496;6.010;2022-07-22T02:17:11;97869.41;;;11.67;100.00
55079;BME280;55187;49.496;6.010;2022-07-22T02:19:41;97893.09;;;11.69;100.00
55079;BME280;55187;49.496;6.010;2022-07-22T02:22:07;97891.00;;;11.64;100.00
55079;BME280;55187;49.496;6.010;2022-07-22T02:24:33;97885.00;;;11.55;100.00
55079;BME280;55187;49.496;6.010;2022-07-22T02:27:00;97888.28;;;11.58;100.00
55079;BME280;55187;49.496;6.010;2022-07-22T02:29:27;97885.88;;;11.63;100.00
55079;BME280;55187;49.496;6.010;2022-07-22T02:31:53;97890.63;;;11.52;100.00
55079;BME280;55187;49.496;6.010;2022-07-22T02:34:21;97894.41;;;11.58;100.00
55079;BME280;55187;49.496;6.010;2022-07-22T02:36:47;97885.72;;;11.49;100.00
55079;BME280;55187;49.496;6.010;2022-07-22T02:39:13;97885.47;;;11.44;100.00
55079;BME280;55187;49.496;6.010;2022-07-22T02:41:40;97883.38;;;11.40;100.00
55079;BME280;55187;49.496;6.010;2022-07-22T02:44:06;97879.44;;;11.36;100.00
55079;BME280;55187;49.496;6.010;2022-07-22T02:46:33;97890.22;;;11.34;100.00
55079;BME280;55187;49.496;6.010;2022-07-22T02:49:09;97884.84;;;11.27;100.00
55079;BME280;55187;49.496;6.010;2022-07-22T02:51:35;97892.41;;;11.30;100.00
55079;BME280;55187;49.496;6.010;2022-07-22T02:54:02;97886.66;;;11.27;100.00
55079;BME280;55187;49.496;6.010;2022-07-22T02:56:28;97892.50;;;11.22;100.00
55079;BME280;55187;49.496;6.010;2022-07-22T02:58:54;97882.38;;;11.26;100.00
55079;BME280;55187;49.496;6.010;2022-07-22T03:01:21;97873.88;;;11.30;100.00
55079;BME280;55187;49.496;6.010;2022-07-22T03:03:53;97882.63;;;11.31;100.00
55079;BME280;55187;49.496;6.010;2022-07-22T03:06:20;97881.34;;;11.27;100.00
55079;BME280;55187;49.496;6.010;2022-07-22T03:09:03;97880.38;;;11.28;100.00
55079;BME280;55187;49.496;6.010;2022-07-22T03:11:31;97871.78;;;11.26;100.00
55079;BME280;55187;49.496;6.010;2022-07-22T03:13:57;97867.13;;;11.28;100.00
55079;BME280;55187;49.496;6.010;2022-07-22T03:16:24;97875.16;;;11.20;100.00
55079;BME280;55187;49.496;6.010;2022-07-22T03:18:50;97867.75;;;11.15;100.00
55079;BME280;55187;49.496;6.010;2022-07-22T03:21:16;97873.16;;;11.07;100.00
55079;BME280;55187;49.496;6.010;2022-07-22T03:23:43;97870.59;;;11.13;100.00
55079;BME280;55187;49.496;6.010;2022-07-22T03:26:09;97867.03;;;11.06;100.00
55079;BME280;55187;49.496;6.010;2022-07-22T03:28:35;97859.81;;;11.00;100.00
55079;BME280;55187;49.496;6.010;2022-07-22T03:31:01;97861.66;;;11.00;100.00
55079;BME280;55187;49.496;6.010;2022-07-22T03:33:27;97857.53;;;10.97;100.00
55079;BME280;55187;49.496;6.010;2022-07-22T03:35:54;97851.63;;;10.95;100.00
55079;BME280;55187;49.496;6.010;2022-07-22T03:38:22;97849.97;;;10.94;100.00
55079;BME280;55187;49.496;6.010;2022-07-22T03:40:48;97852.44;;;10.96;100.00
55079;BME280;55187;49.496;6.010;2022-07-22T03:43:14;97851.63;;;10.95;100.00
55079;BME280;55187;49.496;6.010;2022-07-22T03:45:40;97854.97;;;10.89;100.00
55079;BME280;55187;49.496;6.010;2022-07-22T03:48:09;97858.81;;;10.86;100.00
55079;BME280;55187;49.496;6.010;2022-07-22T03:50:38;97858.34;;;10.83;100.00
55079;BME280;55187;49.496;6.010;2022-07-22T03:53:05;97860.66;;;10.86;100.00
55079;BME280;55187;49.496;6.010;2022-07-22T03:55:34;97855.97;;;10.88;100.00
55079;BME280;55187;49.496;6.010;2022-07-22T03:58:00;97859.53;;;10.80;100.00
55079;BME280;55187;49.496;6.010;2022-07-22T04:00:29;97856.06;;;10.80;100.00
55079;BME280;55187;49.496;6.010;2022-07-22T04:02:56;97862.34;;;10.79;100.00
55079;BME280;55187;49.496;6.010;2022-07-22T04:05:34;97871.59;;;10.83;100.00
55079;BME280;55187;49.496;6.010;2022-07-22T04:08:01;97865.09;;;10.85;100.00
55079;BME280;55187;49.496;6.010;2022-07-22T04:10:29;97861.63;;;10.85;100.00
55079;BME280;55187;49.496;6.010;2022-07-22T04:12:55;97858.88;;;10.78;100.00
55079;BME280;55187;49.496;6.010;2022-07-22T04:15:30;97858.19;;;10.84;100.00
55079;BME280;55187;49.496;6.010;2022-07-22T04:17:56;97864.66;;;10.97;100.00
55079;BME280;55187;49.496;6.010;2022-07-22T04:20:22;97863.28;;;11.01;100.00
55079;BME280;55187;49.496;6.010;2022-07-22T04:23:01;97869.59;;;11.00;100.00
55079;BME280;55187;49.496;6.010;2022-07-22T04:25:28;97852.78;;;11.07;100.00
55079;BME280;55187;49.496;6.010;2022-07-22T04:27:54;97843.75;;;11.17;100.00
55079;BME280;55187;49.496;6.010;2022-07-22T04:30:20;97845.56;;;11.16;100.00
55079;BME280;55187;49.496;6.010;2022-07-22T04:32:49;97844.19;;;11.20;100.00
55079;BME280;55187;49.496;6.010;2022-07-22T04:35:15;97841.63;;;11.27;100.00
55079;BME280;55187;49.496;6.010;2022-07-22T04:37:53;97839.06;;;11.33;100.00
55079;BME280;55187;49.496;6.010;2022-07-22T04:40:20;97832.19;;;11.39;100.00
55079;BME280;55187;49.496;6.010;2022-07-22T04:42:46;97835.50;;;11.41;100.00
55079;BME280;55187;49.496;6.010;2022-07-22T04:45:12;97841.59;;;11.42;100.00
55079;BME280;55187;49.496;6.010;2022-07-22T04:47:39;97841.59;;;11.42;100.00
55079;BME280;55187;49.496;6.010;2022-07-22T04:50:05;97835.94;;;11.45;100.00
55079;BME280;55187;49.496;6.010;2022-07-22T04:52:32;97840.03;;;11.47;100.00
55079;BME280;55187;49.496;6.010;2022-07-22T04:54:58;97840.09;;;11.54;100.00
55079;BME280;55187;49.496;6.010;2022-07-22T04:57:25;97844.75;;;11.67;100.00
55079;BME280;55187;49.496;6.010;2022-07-22T04:59:55;97841.16;;;11.74;100.00
55079;BME280;55187;49.496;6.010;2022-07-22T05:02:21;97842.53;;;11.70;100.00
55079;BME280;55187;49.496;6.010;2022-07-22T05:04:47;97841.19;;;11.96;100.00
55079;BME280;55187;49.496;6.010;2022-07-22T05:07:14;97836.41;;;12.06;100.00
55079;BME280;55187;49.496;6.010;2022-07-22T05:09:42;97837.50;;;12.18;100.00
55079;BME280;55187;49.496;6.010;2022-07-22T05:12:10;97842.81;;;12.18;100.00
55079;BME280;55187;49.496;6.010;2022-07-22T05:14:37;97842.50;;;12.28;100.00
55079;BME280;55187;49.496;6.010;2022-07-22T05:17:04;97841.31;;;12.31;100.00
55079;BME280;55187;49.496;6.010;2022-07-22T05:19:37;97844.56;;;12.33;100.00
55079;BME280;55187;49.496;6.010;2022-07-22T05:22:06;97845.78;;;12.30;100.00
55079;BME280;55187;49.496;6.010;2022-07-22T05:24:32;97845.84;;;12.37;100.00
55079;BME280;55187;49.496;6.010;2022-07-22T05:26:58;97837.63;;;12.60;100.00
55079;BME280;55187;49.496;6.010;2022-07-22T05:29:25;97838.22;;;12.55;100.00
55079;BME280;55187;49.496;6.010;2022-07-22T05:31:51;97839.94;;;12.70;100.00
55079;BME280;55187;49.496;6.010;2022-07-22T05:34:17;97836.59;;;12.89;100.00
55079;BME280;55187;49.496;6.010;2022-07-22T05:36:50;97827.75;;;13.17;100.00
55079;BME280;55187;49.496;6.010;2022-07-22T05:39:16;97830.78;;;13.07;100.00
55079;BME280;55187;49.496;6.010;2022-07-22T05:41:42;97827.94;;;13.15;100.00
55079;BME280;55187;49.496;6.010;2022-07-22T05:44:08;97828.41;;;13.26;100.00
55079;BME280;55187;49.496;6.010;2022-07-22T05:46:35;97823.56;;;13.36;100.00
55079;BME280;55187;49.496;6.010;2022-07-22T05:49:01;97829.28;;;13.33;100.00
55079;BME280;55187;49.496;6.010;2022-07-22T05:51:31;97824.97;;;13.32;100.00
55079;BME280;55187;49.496;6.010;2022-07-22T05:53:58;97820.97;;;13.49;100.00
55079;BME280;55187;49.496;6.010;2022-07-22T05:56:24;97821.00;;;13.62;100.00
55079;BME280;55187;49.496;6.010;2022-07-22T05:58:50;97823.28;;;13.72;100.00
55079;BME280;55187;49.496;6.010;2022-07-22T06:01:25;97823.28;;;13.79;100.00
55079;BME280;55187;49.496;6.010;2022-07-22T06:03:52;97825.81;;;14.34;100.00
55079;BME280;55187;49.496;6.010;2022-07-22T06:06:19;97830.75;;;14.63;100.00
55079;BME280;55187;49.496;6.010;2022-07-22T06:08:46;97824.69;;;16.30;97.04
55079;BME280;55187;49.496;6.010;2022-07-22T06:11:13;97817.91;;;18.12;88.04
55079;BME280;55187;49.496;6.010;2022-07-22T06:13:40;97815.16;;;19.53;80.71
55079;BME280;55187;49.496;6.010;2022-07-22T06:16:06;97815.53;;;20.65;72.82
55079;BME280;55187;49.496;6.010;2022-07-22T06:18:33;97816.66;;;20.35;73.60
55079;BME280;55187;49.496;6.010;2022-07-22T06:20:59;97821.22;;;19.72;75.63
55079;BME280;55187;49.496;6.010;2022-07-22T06:23:26;97829.03;;;21.70;68.58
55079;BME280;55187;49.496;6.010;2022-07-22T06:25:52;97823.44;;;22.04;65.40
55079;BME280;55187;49.496;6.010;2022-07-22T06:28:25;97831.50;;;21.32;66.02
55079;BME280;55187;49.496;6.010;2022-07-22T06:30:52;97827.78;;;22.69;64.07
55079;BME280;55187;49.496;6.010;2022-07-22T06:33:19;97827.81;;;25.18;56.77
55079;BME280;55187;49.496;6.010;2022-07-22T06:35:45;97831.34;;;25.79;53.79
55079;BME280;55187;49.496;6.010;2022-07-22T06:38:11;97837.88;;;26.27;53.01
55079;BME280;55187;49.496;6.010;2022-07-22T06:40:57;97840.50;;;25.98;53.81
55079;BME280;55187;49.496;6.010;2022-07-22T06:43:41;97836.00;;;24.77;56.81
55079;BME280;55187;49.496;6.010;2022-07-22T06:46:27;97833.88;;;26.14;52.65
55079;BME280;55187;49.496;6.010;2022-07-22T06:48:53;97833.03;;;24.84;55.36
55079;BME280;55187;49.496;6.010;2022-07-22T06:51:19;97836.38;;;25.56;52.79
55079;BME280;55187;49.496;6.010;2022-07-22T06:53:46;97833.03;;;24.84;53.72
55079;BME280;55187;49.496;6.010;2022-07-22T06:56:12;97832.69;;;25.26;54.06
55079;BME280;55187;49.496;6.010;2022-07-22T06:58:40;97834.66;;;27.13;49.16
55079;BME280;55187;49.496;6.010;2022-07-22T07:01:07;97828.34;;;27.23;49.72
55079;BME280;55187;49.496;6.010;2022-07-22T07:03:46;97826.06;;;25.53;52.43
55079;BME280;55187;49.496;6.010;2022-07-22T07:06:12;97825.44;;;28.19;47.71
55079;BME280;55187;49.496;6.010;2022-07-22T07:08:54;97826.38;;;27.71;47.69
55079;BME280;55187;49.496;6.010;2022-07-22T07:11:24;97813.47;;;26.22;51.92
55079;BME280;55187;49.496;6.010;2022-07-22T07:13:51;97819.84;;;27.72;47.88
55079;BME280;55187;49.496;6.010;2022-07-22T07:16:18;97815.22;;;27.00;48.53
55079;BME280;55187;49.496;6.010;2022-07-22T07:18:44;97817.16;;;28.43;46.79
55079;BME280;55187;49.496;6.010;2022-07-22T07:21:10;97814.13;;;28.77;45.07
55079;BME280;55187;49.496;6.010;2022-07-22T07:23:37;97817.13;;;29.78;44.57
55079;BME280;55187;49.496;6.010;2022-07-22T07:26:04;97812.59;;;30.55;41.87
55079;BME280;55187;49.496;6.010;2022-07-22T07:28:31;97810.03;;;29.49;43.25
55079;BME280;55187;49.496;6.010;2022-07-22T07:31:05;97816.00;;;30.60;42.47
55079;BME280;55187;49.496;6.010;2022-07-22T07:33:31;97813.28;;;29.23;43.55
55079;BME280;55187;49.496;6.010;2022-07-22T07:35:59;97809.94;;;30.04;42.41
55079;BME280;55187;49.496;6.010;2022-07-22T07:38:36;97808.44;;;26.05;48.55
55079;BME280;55187;49.496;6.010;2022-07-22T07:41:05;97804.38;;;28.76;44.68
55079;BME280;55187;49.496;6.010;2022-07-22T07:43:31;97797.81;;;28.91;44.72
55079;BME280;55187;49.496;6.010;2022-07-22T07:46:00;97806.63;;;27.41;47.14
55079;BME280;55187;49.496;6.010;2022-07-22T07:48:26;97811.59;;;29.14;44.31
55079;BME280;55187;49.496;6.010;2022-07-22T07:50:52;97818.03;;;30.09;42.96
55079;BME280;55187;49.496;6.010;2022-07-22T07:53:19;97819.94;;;29.59;42.87
55079;BME280;55187;49.496;6.010;2022-07-22T07:55:46;97823.25;;;30.65;40.71
55079;BME280;55187;49.496;6.010;2022-07-22T07:58:12;97821.97;;;29.39;43.04
55079;BME280;55187;49.496;6.010;2022-07-22T08:00:40;97823.63;;;26.75;47.73
55079;BME280;55187;49.496;6.010;2022-07-22T08:03:10;97817.19;;;29.86;44.15
55079;BME280;55187;49.496;6.010;2022-07-22T08:05:37;97819.44;;;29.57;44.77
55079;BME280;55187;49.496;6.010;2022-07-22T08:08:12;97808.28;;;30.85;41.61
55079;BME280;55187;49.496;6.010;2022-07-22T08:10:39;97820.44;;;31.10;40.27
55079;BME280;55187;49.496;6.010;2022-07-22T08:13:17;97816.34;;;30.90;42.25
55079;BME280;55187;49.496;6.010;2022-07-22T08:15:58;97814.25;;;31.27;41.18
55079;BME280;55187;49.496;6.010;2022-07-22T08:18:26;97813.09;;;29.75;43.15
55079;BME280;55187;49.496;6.010;2022-07-22T08:20:53;97816.03;;;31.97;39.77
55079;BME280;55187;49.496;6.010;2022-07-22T08:23:25;97806.78;;;31.59;41.12
55079;BME280;55187;49.496;6.010;2022-07-22T08:25:52;97808.47;;;29.98;41.54
55079;BME280;55187;49.496;6.010;2022-07-22T08:28:18;97810.81;;;31.70;40.64
55079;BME280;55187;49.496;6.010;2022-07-22T08:30:45;97801.16;;;28.22;45.25
55079;BME280;55187;49.496;6.010;2022-07-22T08:33:11;97806.94;;;29.42;44.18
55079;BME280;55187;49.496;6.010;2022-07-22T08:35:38;97803.94;;;29.94;44.03
55079;BME280;55187;49.496;6.010;2022-07-22T08:38:04;97797.84;;;29.33;44.35
55079;BME280;55187;49.496;6.010;2022-07-22T08:40:30;97797.97;;;32.14;38.62
55079;BME280;55187;49.496;6.010;2022-07-22T08:42:59;97793.31;;;31.22;39.47
55079;BME280;55187;49.496;6.010;2022-07-22T08:45:30;97794.50;;;30.99;41.69
55079;BME280;55187;49.496;6.010;2022-07-22T08:47:56;97798.28;;;31.86;38.42
55079;BME280;55187;49.496;6.010;2022-07-22T08:50:36;97793.06;;;30.92;39.79
55079;BME280;55187;49.496;6.010;2022-07-22T08:53:18;97799.56;;;32.50;37.86
55079;BME280;55187;49.496;6.010;2022-07-22T08:55:46;97793.53;;;32.83;38.28
55079;BME280;55187;49.496;6.010;2022-07-22T08:58:12;97795.38;;;29.86;40.56
55079;BME280;55187;49.496;6.010;2022-07-22T09:00:39;97784.38;;;29.64;41.57
55079;BME280;55187;49.496;6.010;2022-07-22T09:05:44;97781.22;;;29.84;41.41
55079;BME280;55187;49.496;6.010;2022-07-22T09:08:13;97782.47;;;31.48;38.72
55079;BME280;55187;49.496;6.010;2022-07-22T09:10:54;97776.88;;;31.13;39.76
55079;BME280;55187;49.496;6.010;2022-07-22T09:13:33;97783.13;;;31.63;38.22
55079;BME280;55187;49.496;6.010;2022-07-22T09:16:37;97784.75;;;31.81;38.23
55079;BME280;55187;49.496;6.010;2022-07-22T09:19:19;97778.78;;;31.04;39.13
55079;BME280;55187;49.496;6.010;2022-07-22T09:22:29;97778.06;;;32.78;38.41
55079;BME280;55187;49.496;6.010;2022-07-22T09:28:10;97776.13;;;28.86;43.28
55079;BME280;55187;49.496;6.010;2022-07-22T09:30:50;97779.16;;;31.20;40.08
55079;BME280;55187;49.496;6.010;2022-07-22T09:33:17;97770.09;;;31.02;39.04
55079;BME280;55187;49.496;6.010;2022-07-22T09:35:50;97776.38;;;30.04;40.78
55079;BME280;55187;49.496;6.010;2022-07-22T09:38:19;97767.88;;;30.50;40.19
55079;BME280;55187;49.496;6.010;2022-07-22T09:40:53;97774.66;;;30.08;40.65
55079;BME280;55187;49.496;6.010;2022-07-22T09:43:20;97765.50;;;31.20;39.43
55079;BME280;55187;49.496;6.010;2022-07-22T09:45:50;97755.56;;;30.08;41.79
55079;BME280;55187;49.496;6.010;2022-07-22T09:48:19;97751.34;;;31.27;41.66
55079;BME280;55187;49.496;6.010;2022-07-22T09:50:59;97756.41;;;31.60;39.42
55079;BME280;55187;49.496;6.010;2022-07-22T09:53:45;97753.47;;;32.43;38.61
55079;BME280;55187;49.496;6.010;2022-07-22T09:56:14;97760.38;;;29.52;42.90
55079;BME280;55187;49.496;6.010;2022-07-22T09:58:42;97761.75;;;30.45;40.08
55079;BME280;55187;49.496;6.010;2022-07-22T10:01:15;97765.53;;;30.89;40.38
55079;BME280;55187;49.496;6.010;2022-07-22T10:03:43;97761.75;;;31.07;39.46
55079;BME280;55187;49.496;6.010;2022-07-22T10:06:10;97759.31;;;31.06;38.28
55079;BME280;55187;49.496;6.010;2022-07-22T10:08:37;97769.47;;;31.80;39.36
55079;BME280;55187;49.496;6.010;2022-07-22T10:11:04;97760.41;;;31.45;37.96
55079;BME280;55187;49.496;6.010;2022-07-22T10:13:31;97755.31;;;29.45;42.07
55079;BME280;55187;49.496;6.010;2022-07-22T10:15:59;97754.31;;;30.14;41.16
55079;BME280;55187;49.496;6.010;2022-07-22T10:18:27;97747.41;;;29.58;41.82
55079;BME280;55187;49.496;6.010;2022-07-22T10:21:02;97756.00;;;31.18;42.48
55079;BME280;55187;49.496;6.010;2022-07-22T10:23:29;97742.31;;;30.78;39.33
55079;BME280;55187;49.496;6.010;2022-07-22T10:25:56;97754.13;;;30.56;40.27
55079;BME280;55187;49.496;6.010;2022-07-22T10:28:30;97748.88;;;30.99;38.45
55079;BME280;55187;49.496;6.010;2022-07-22T10:31:16;97747.75;;;30.38;39.84
55079;BME280;55187;49.496;6.010;2022-07-22T10:33:43;97734.88;;;30.69;39.92
55079;BME280;55187;49.496;6.010;2022-07-22T10:36:10;97741.59;;;32.86;38.40
55079;BME280;55187;49.496;6.010;2022-07-22T10:38:37;97739.22;;;32.03;37.73
55079;BME280;55187;49.496;6.010;2022-07-22T10:41:04;97731.25;;;31.31;38.14
55079;BME280;55187;49.496;6.010;2022-07-22T10:43:50;97730.28;;;29.43;42.35
55079;BME280;55187;49.496;6.010;2022-07-22T10:46:17;97735.75;;;28.88;43.60
55079;BME280;55187;49.496;6.010;2022-07-22T10:48:44;97723.72;;;30.48;41.25
55079;BME280;55187;49.496;6.010;2022-07-22T10:51:17;97725.09;;;31.08;40.43
55079;BME280;55187;49.496;6.010;2022-07-22T10:56:24;97715.25;;;30.14;41.50
55079;BME280;55187;49.496;6.010;2022-07-22T11:01:31;97717.03;;;29.87;43.76
55079;BME280;55187;49.496;6.010;2022-07-22T11:04:07;97714.34;;;30.41;41.03
55079;BME280;55187;49.496;6.010;2022-07-22T11:06:33;97710.19;;;29.76;41.50
55079;BME280;55187;49.496;6.010;2022-07-22T11:09:00;97717.03;;;29.51;41.59
55079;BME280;55187;49.496;6.010;2022-07-22T11:11:31;97714.09;;;31.66;39.00
55079;BME280;55187;49.496;6.010;2022-07-22T11:13:57;97698.94;;;30.85;39.95
55079;BME280;55187;49.496;6.010;2022-07-22T11:16:24;97706.78;;;30.15;41.02
55079;BME280;55187;49.496;6.010;2022-07-22T11:18:52;97696.50;;;30.74;40.47
55079;BME280;55187;49.496;6.010;2022-07-22T11:21:19;97700.63;;;29.14;42.38
55079;BME280;55187;49.496;6.010;2022-07-22T11:23:47;97704.06;;;28.18;44.40
55079;BME280;55187;49.496;6.010;2022-07-22T11:26:14;97704.06;;;27.28;48.67
55079;BME280;55187;49.496;6.010;2022-07-22T11:28:42;97694.53;;;27.50;48.04
55079;BME280;55187;49.496;6.010;2022-07-22T11:31:09;97692.69;;;27.45;47.70
55079;BME280;55187;49.496;6.010;2022-07-22T11:33:35;97696.94;;;27.51;45.66
55079;BME280;55187;49.496;6.010;2022-07-22T11:36:05;97695.47;;;26.97;48.02
55079;BME280;55187;49.496;6.010;2022-07-22T11:38:42;97698.25;;;27.35;46.45
55079;BME280;55187;49.496;6.010;2022-07-22T11:41:10;97696.78;;;26.51;48.58
55079;BME280;55187;49.496;6.010;2022-07-22T11:43:44;97694.50;;;26.64;46.97
55079;BME280;55187;49.496;6.010;2022-07-22T11:46:11;97679.59;;;28.32;46.91
55079;BME280;55187;49.496;6.010;2022-07-22T11:48:38;97674.84;;;28.23;46.77
55079;BME280;55187;49.496;6.010;2022-07-22T11:51:05;97675.63;;;27.77;45.25
55079;BME280;55187;49.496;6.010;2022-07-22T11:53:31;97661.91;;;28.01;45.47
55079;BME280;55187;49.496;6.010;2022-07-22T11:56:01;97666.06;;;27.04;45.93
55079;BME280;55187;49.496;6.010;2022-07-22T11:58:38;97665.97;;;26.90;46.98
55079;BME280;55187;49.496;6.010;2022-07-22T12:01:10;97658.09;;;27.32;46.53
55079;BME280;55187;49.496;6.010;2022-07-22T12:03:38;97653.09;;;27.20;47.22
55079;BME280;55187;49.496;6.010;2022-07-22T12:06:09;97653.06;;;27.58;46.58
55079;BME280;55187;49.496;6.010;2022-07-22T12:08:39;97649.16;;;27.64;45.72
55079;BME280;55187;49.496;6.010;2022-07-22T12:11:06;97656.91;;;27.38;47.30
55079;BME280;55187;49.496;6.010;2022-07-22T12:13:33;97655.72;;;27.25;47.96
55079;BME280;55187;49.496;6.010;2022-07-22T12:15:59;97648.31;;;26.69;51.51
55079;BME280;55187;49.496;6.010;2022-07-22T12:18:26;97648.06;;;26.65;50.41
55079;BME280;55187;49.496;6.010;2022-07-22T12:20:53;97640.63;;;27.38;45.93
55079;BME280;55187;49.496;6.010;2022-07-22T12:23:20;97638.03;;;27.28;46.37
55079;BME280;55187;49.496;6.010;2022-07-22T12:25:51;97635.91;;;27.25;46.67
55079;BME280;55187;49.496;6.010;2022-07-22T12:28:20;97629.28;;;27.82;47.94
55079;BME280;55187;49.496;6.010;2022-07-22T12:30:47;97626.19;;;27.37;45.34
55079;BME280;55187;49.496;6.010;2022-07-22T12:33:17;97621.25;;;27.02;47.18
55079;BME280;55187;49.496;6.010;2022-07-22T12:35:44;97624.88;;;27.54;53.92
55079;BME280;55187;49.496;6.010;2022-07-22T12:38:10;97622.50;;;27.66;48.09
55079;BME280;55187;49.496;6.010;2022-07-22T12:40:37;97621.59;;;27.38;52.24
55079;BME280;55187;49.496;6.010;2022-07-22T12:43:04;97628.38;;;26.78;52.80
55079;BME280;55187;49.496;6.010;2022-07-22T12:45:32;97619.06;;;27.04;51.09
55079;BME280;55187;49.496;6.010;2022-07-22T12:48:06;97610.81;;;27.47;45.60
55079;BME280;55187;49.496;6.010;2022-07-22T12:50:34;97615.97;;;27.48;47.00
55079;BME280;55187;49.496;6.010;2022-07-22T12:53:05;97621.44;;;27.29;46.36
55079;BME280;55187;49.496;6.010;2022-07-22T12:55:34;97617.66;;;27.44;49.33
55079;BME280;55187;49.496;6.010;2022-07-22T12:58:00;97616.91;;;27.57;44.76
55079;BME280;55187;49.496;6.010;2022-07-22T13:00:27;97611.53;;;27.71;48.11
55079;BME280;55187;49.496;6.010;2022-07-22T13:02:54;97611.13;;;28.38;44.40
55079;BME280;55187;49.496;6.010;2022-07-22T13:05:22;97611.53;;;28.32;45.88
55079;BME280;55187;49.496;6.010;2022-07-22T13:07:48;97617.84;;;27.67;45.29
55079;BME280;55187;49.496;6.010;2022-07-22T13:10:14;97624.81;;;27.92;47.18
55079;BME280;55187;49.496;6.010;2022-07-22T13:12:41;97612.84;;;27.74;46.55